Guajillo, Texas
Current Conditions -  °F | °C
As of 4:07 AM on Friday 19 Dec 2014 (Local Time) from KALI Reporting Station
Thunderstorm Thunderstorm  
Wind Chill: 69°   Ceiling: 400
Heat Index: 69°   Visibility: 2mi
Dew Point: 67°   Wind: 3mph
Humidity: 93%   Direction: 300°WNW
Pressure: 29.95"   Gusts: NA
Location:  27.6821°N, 98.1034°W
Report Text: KALI 191007Z AUTO 30003KT 2SM -TSRA BR BKN004 OVC015 21/19 A2995 RMK AO2 TSB0954 CIG 002V006 P0000 T02060194
Loading
Personal Weather Stations






























Interactive Weather Map New forecast layout! Learn more

10-Day Weather Forecast

Advertisements
Track Severe Weather on mobile